Time;durP1;ratioP1;P1;durP2;ratioP2;P2;SDS_P1;SDS_P2;PMS_P1;PMS_P2;Temp;Humidity;BMP_temperature;BMP_pressure;BME280_temperature;BME280_humidity;BME280_pressure;Samples;Min_cycle;Max_cycle;Signal;HPM_P1;HPM_P2
2021/10/26 00:01:24;;;;;;;26.33;15.57;;;24.50;36.70;;;;;;6153835;28;83061;-68
2021/10/26 00:04:24;;;;;;;21.35;14.05;;;24.50;36.70;;;;;;6150363;28;86034;-68
2021/10/26 00:07:25;;;;;;;22.90;14.20;;;24.50;36.60;;;;;;6154688;28;83965;-68
2021/10/26 00:10:25;;;;;;;26.20;15.02;;;24.50;37.20;;;;;;6154545;28;82940;-68
2021/10/26 00:13:26;;;;;;;27.27;15.13;;;24.50;36.60;;;;;;6154609;28;83274;-68
2021/10/26 00:16:26;;;;;;;22.42;13.73;;;24.50;36.50;;;;;;6154678;28;82848;-68
2021/10/26 00:19:27;;;;;;;25.80;14.27;;;24.50;36.60;;;;;;6154633;28;84304;-68
2021/10/26 00:22:27;;;;;;;22.55;13.30;;;24.50;36.50;;;;;;6152992;28;83221;-69
2021/10/26 00:25:28;;;;;;;25.88;14.40;;;24.50;36.50;;;;;;6154653;28;83887;-69
2021/10/26 00:28:29;;;;;;;24.83;14.27;;;24.50;36.60;;;;;;6155699;28;84290;-69
2021/10/26 00:31:29;;;;;;;21.05;13.85;;;24.50;36.60;;;;;;6136735;28;85549;-69
2021/10/26 00:34:30;;;;;;;21.15;13.13;;;24.50;36.70;;;;;;6153860;28;83007;-69
2021/10/26 00:37:30;;;;;;;20.25;12.27;;;24.40;36.90;;;;;;6135952;28;84189;-69
2021/10/26 00:40:32;;;;;;;20.70;13.13;;;24.40;37.10;;;;;;6129614;28;83539;-69
2021/10/26 00:43:33;;;;;;;20.88;12.45;;;24.40;37.10;;;;;;6137000;28;85564;-69
2021/10/26 00:46:34;;;;;;;21.25;12.43;;;24.40;36.90;;;;;;6154428;28;83095;-68
2021/10/26 00:49:35;;;;;;;14.02;9.13;;;24.40;37.40;;;;;;6153221;28;82983;-69
2021/10/26 00:52:35;;;;;;;17.40;10.90;;;24.40;37.80;;;;;;6140072;28;84979;-69
2021/10/26 00:55:36;;;;;;;18.45;11.77;;;24.40;37.20;;;;;;6137181;28;83660;-69
2021/10/26 00:58:36;;;;;;;17.50;11.02;;;24.40;37.30;;;;;;6155333;28;83058;-68
2021/10/26 01:01:37;;;;;;;20.05;12.13;;;24.40;37.50;;;;;;6138234;28;84753;-68
2021/10/26 01:04:38;;;;;;;20.38;12.27;;;24.40;37.40;;;;;;6156494;28;83707;-69
2021/10/26 01:07:39;;;;;;;19.35;11.65;;;24.30;37.40;;;;;;6157515;28;83857;-69
2021/10/26 01:10:40;;;;;;;18.27;11.50;;;24.30;37.40;;;;;;6140530;28;85269;-69
2021/10/26 01:13:40;;;;;;;18.35;10.85;;;24.30;37.20;;;;;;6140829;28;85037;-68
2021/10/26 01:16:41;;;;;;;17.85;10.57;;;24.40;37.50;;;;;;6139848;28;85802;-67
2021/10/26 01:19:44;;;;;;;21.40;11.73;;;24.30;37.70;;;;;;6142852;28;84267;-68
2021/10/26 01:22:45;;;;;;;18.60;11.65;;;24.30;37.80;;;;;;6157528;28;83627;-69
2021/10/26 01:25:46;;;;;;;18.85;11.75;;;24.30;37.60;;;;;;6141192;28;84781;-69
2021/10/26 01:28:47;;;;;;;22.77;12.38;;;24.30;37.90;;;;;;6156647;28;84649;-68
2021/10/26 01:31:47;;;;;;;21.67;13.52;;;24.30;37.50;;;;;;6124423;28;84632;-69
2021/10/26 01:35:00;;;;;;;19.63;11.07;;;24.30;37.60;;;;;;6139046;28;86220;-68
2021/10/26 01:38:01;;;;;;;15.38;9.98;;;24.30;37.80;;;;;;6135020;28;86387;-68
2021/10/26 01:41:01;;;;;;;20.70;12.18;;;24.30;37.90;;;;;;6147475;28;84838;-68
2021/10/26 01:44:02;;;;;;;21.13;11.57;;;24.30;37.40;;;;;;6148802;28;85114;-68
2021/10/26 01:47:04;;;;;;;19.15;11.32;;;24.30;37.50;;;;;;6148231;28;84352;-67
2021/10/26 01:50:05;;;;;;;21.75;13.73;;;24.30;37.50;;;;;;6147384;28;86246;-68
2021/10/26 01:53:06;;;;;;;23.67;13.50;;;24.30;37.20;;;;;;6132807;28;83123;-68
2021/10/26 01:56:06;;;;;;;18.85;12.13;;;24.30;37.20;;;;;;6132741;28;82799;-69
2021/10/26 01:59:18;;;;;;;20.20;11.90;;;24.30;37.20;;;;;;6115317;28;85192;-68
2021/10/26 02:02:20;;;;;;;17.60;10.85;;;24.30;37.00;;;;;;6147278;28;86239;-68
2021/10/26 02:05:20;;;;;;;20.88;12.07;;;24.30;37.40;;;;;;6149262;28;85572;-69
2021/10/26 02:08:21;;;;;;;19.50;12.30;;;24.30;37.20;;;;;;6151963;28;86311;-68
2021/10/26 02:11:21;;;;;;;22.67;12.80;;;24.20;37.30;;;;;;6133350;28;83843;-68
2021/10/26 02:14:22;;;;;;;21.48;12.80;;;24.30;37.50;;;;;;6147357;28;86111;-68
2021/10/26 02:17:22;;;;;;;21.90;12.75;;;24.20;37.00;;;;;;6114152;28;83183;-69
2021/10/26 02:20:23;;;;;;;23.38;14.00;;;24.30;37.50;;;;;;6114480;28;89120;-68
2021/10/26 02:23:24;;;;;;;22.55;13.75;;;24.30;37.10;;;;;;6114145;28;85631;-68
2021/10/26 02:26:25;;;;;;;23.88;14.45;;;24.30;36.60;;;;;;6114906;28;85315;-68
2021/10/26 02:29:26;;;;;;;21.58;13.57;;;24.30;36.50;;;;;;6116958;28;84815;-67
2021/10/26 02:32:32;;;;;;;30.75;14.80;;;24.30;36.70;;;;;;6113448;28;83470;-68
2021/10/26 02:35:32;;;;;;;21.58;13.15;;;24.30;36.80;;;;;;6123166;28;84778;-68
2021/10/26 02:38:33;;;;;;;21.48;13.73;;;24.30;36.70;;;;;;6138104;28;85469;-69
2021/10/26 02:41:33;;;;;;;22.25;14.10;;;24.30;36.50;;;;;;6139477;28;86122;-68
2021/10/26 02:44:34;;;;;;;23.85;14.38;;;24.40;36.30;;;;;;6133405;28;86180;-68
2021/10/26 02:47:37;;;;;;;21.15;13.35;;;24.40;36.10;;;;;;6115936;28;85553;-70
2021/10/26 02:50:38;;;;;;;23.17;13.32;;;24.40;36.10;;;;;;6119601;28;85221;-70
2021/10/26 02:53:39;;;;;;;22.98;12.73;;;24.40;35.90;;;;;;6138118;28;84035;-70
2021/10/26 02:56:44;;;;;;;21.75;13.40;;;24.50;36.30;;;;;;6136105;28;83258;-71
2021/10/26 02:59:44;;;;;;;19.20;12.85;;;24.50;37.00;;;;;;6133828;28;86200;-71
2021/10/26 03:02:45;;;;;;;21.38;13.00;;;24.50;36.50;;;;;;6125492;28;85920;-70
2021/10/26 03:05:46;;;;;;;18.75;12.05;;;24.50;36.00;;;;;;6138768;28;85534;-69
2021/10/26 03:08:47;;;;;;;19.40;12.38;;;24.60;36.10;;;;;;6110106;28;86333;-69
2021/10/26 03:11:56;;;;;;;27.77;14.23;;;24.60;36.10;;;;;;6112557;28;84017;-70
2021/10/26 03:14:57;;;;;;;23.25;14.05;;;24.60;36.30;;;;;;6112497;28;86035;-70
2021/10/26 03:17:58;;;;;;;24.00;13.93;;;24.60;36.30;;;;;;6124636;28;86243;-70
2021/10/26 03:20:59;;;;;;;25.52;14.48;;;24.60;36.10;;;;;;6156051;28;83497;-71
2021/10/26 03:24:00;;;;;;;24.58;14.80;;;24.60;36.00;;;;;;6156070;28;83955;-71
2021/10/26 03:27:01;;;;;;;26.08;14.95;;;24.60;35.80;;;;;;6137266;28;83073;-71
2021/10/26 03:30:02;;;;;;;23.77;14.27;;;24.60;36.20;;;;;;6138068;28;86146;-71
2021/10/26 03:33:03;;;;;;;25.45;15.27;;;24.60;35.90;;;;;;6140869;28;85776;-71
2021/10/26 03:36:10;;;;;;;25.83;15.55;;;24.60;35.90;;;;;;6136996;28;85784;-72
2021/10/26 03:39:11;;;;;;;26.48;14.93;;;24.60;35.70;;;;;;6139485;28;85412;-71
2021/10/26 03:42:11;;;;;;;29.23;15.57;;;24.60;36.00;;;;;;6139268;28;86248;-70
2021/10/26 03:45:12;;;;;;;30.20;16.08;;;24.70;36.50;;;;;;6137357;28;85384;-72
2021/10/26 03:48:14;;;;;;;27.60;16.75;;;24.70;36.00;;;;;;6139200;28;85802;-69
2021/10/26 03:51:16;;;;;;;26.63;16.42;;;24.70;35.60;;;;;;6137435;28;85582;-69
2021/10/26 03:54:17;;;;;;;31.23;18.27;;;24.70;35.90;;;;;;6121655;28;85194;-68
2021/10/26 03:57:21;;;;;;;29.00;17.42;;;24.70;35.90;;;;;;6134056;28;84058;-69
2021/10/26 04:00:22;;;;;;;30.10;17.98;;;24.70;35.50;;;;;;6129840;28;82970;-70
2021/10/26 04:03:39;;;;;;;30.23;18.08;;;24.70;35.80;;;;;;6118287;28;86222;-62
2021/10/26 04:06:42;;;;;;;29.42;17.67;;;24.70;35.60;;;;;;6134921;28;85923;-62
2021/10/26 04:12:44;;;;;;;33.72;19.00;;;24.70;35.80;;;;;;6106546;28;84145;-68
2021/10/26 04:15:45;;;;;;;37.47;20.67;;;24.70;35.80;;;;;;6155922;28;83022;-66
2021/10/26 04:18:46;;;;;;;196.43;81.90;;;24.70;35.00;;;;;;6137730;28;85550;-69
2021/10/26 04:21:46;;;;;;;256.80;106.63;;;24.70;35.40;;;;;;6138616;28;85846;-68
2021/10/26 04:24:47;;;;;;;201.43;82.03;;;24.70;36.00;;;;;;6117747;28;85768;-69
2021/10/26 04:27:50;;;;;;;198.63;76.75;;;24.70;36.10;;;;;;6124464;28;87573;-63
2021/10/26 04:30:50;;;;;;;163.80;71.68;;;24.80;36.30;;;;;;6145274;28;83799;-63
2021/10/26 04:33:54;;;;;;;148.35;64.80;;;24.70;36.80;;;;;;6115849;28;85401;-67
2021/10/26 04:36:55;;;;;;;141.18;61.30;;;24.70;36.30;;;;;;6134567;28;85783;-66
2021/10/26 04:39:58;;;;;;;136.63;59.40;;;24.70;36.00;;;;;;6119304;28;83134;-67
2021/10/26 04:42:59;;;;;;;129.68;56.13;;;24.70;35.90;;;;;;6116200;28;85225;-63
2021/10/26 04:46:00;;;;;;;123.75;51.83;;;24.70;36.10;;;;;;6113769;28;86033;-66
2021/10/26 04:49:01;;;;;;;114.65;47.55;;;24.70;35.90;;;;;;6115615;28;85707;-68
2021/10/26 04:52:03;;;;;;;103.32;47.35;;;24.70;36.10;;;;;;6115104;28;85431;-69
2021/10/26 04:55:04;;;;;;;95.32;44.97;;;24.70;36.50;;;;;;6117298;28;86122;-68
2021/10/26 04:58:05;;;;;;;91.90;41.85;;;24.70;36.20;;;;;;6137102;28;85509;-62
2021/10/26 05:01:15;;;;;;;79.90;40.72;;;24.70;36.40;;;;;;6138647;28;85913;-65
2021/10/26 05:04:16;;;;;;;84.55;39.65;;;24.70;36.10;;;;;;6140980;28;84985;-69
2021/10/26 05:07:19;;;;;;;84.28;37.45;;;24.70;35.90;;;;;;6139502;28;85892;-67
2021/10/26 05:10:20;;;;;;;82.72;37.88;;;24.70;36.10;;;;;;6141206;28;86483;-67
2021/10/26 05:13:21;;;;;;;70.32;36.28;;;24.60;36.30;;;;;;6123655;28;85982;-69
2021/10/26 05:16:43;;;;;;;69.60;34.90;;;24.60;36.80;;;;;;6156128;28;86145;-68
2021/10/26 05:20:04;;;;;;;70.60;34.75;;;24.60;37.30;;;;;;6155393;28;82818;-70
2021/10/26 05:23:23;;;;;;;72.72;34.80;;;24.60;38.80;;;;;;6144075;28;84422;-71
2021/10/26 05:26:47;;;;;;;69.65;34.33;;;24.60;40.10;;;;;;6147245;28;83883;-71
2021/10/26 05:29:48;;;;;;;67.90;34.38;;;24.60;39.60;;;;;;6139696;28;84243;-70
2021/10/26 05:32:48;;;;;;;67.20;33.63;;;24.60;42.60;;;;;;6157299;28;82966;-68
2021/10/26 05:35:49;;;;;;;70.15;34.88;;;24.60;42.80;;;;;;6140790;28;86278;-71
2021/10/26 05:38:51;;;;;;;67.63;35.47;;;24.60;44.70;;;;;;6156554;28;83117;-69
2021/10/26 05:41:51;;;;;;;70.63;34.90;;;24.60;44.50;;;;;;6146247;28;82779;-73
2021/10/26 05:44:52;;;;;;;60.53;30.38;;;24.60;46.30;;;;;;6115067;28;85870;-66
2021/10/26 05:47:52;;;;;;;59.53;31.00;;;24.70;46.20;;;;;;6132846;28;83510;-66
2021/10/26 05:50:53;;;;;;;64.55;32.65;;;24.70;45.10;;;;;;6143467;28;83090;-68
2021/10/26 05:53:53;;;;;;;60.58;29.92;;;24.70;44.80;;;;;;6135980;28;85907;-67
2021/10/26 05:56:54;;;;;;;61.70;30.88;;;24.60;43.80;;;;;;6137956;28;86389;-65
2021/10/26 05:59:54;;;;;;;60.63;29.67;;;24.70;43.50;;;;;;6138748;28;84746;-66
2021/10/26 06:02:55;;;;;;;74.40;34.20;;;24.70;42.70;;;;;;6123335;28;85833;-65
2021/10/26 06:05:56;;;;;;;193.98;85.72;;;24.70;42.50;;;;;;6123668;28;86941;-66
2021/10/26 06:08:56;;;;;;;264.70;106.72;;;24.70;42.40;;;;;;6145161;28;83063;-64
2021/10/26 06:11:59;;;;;;;262.80;108.88;;;24.70;42.60;;;;;;6121263;28;85595;-66
2021/10/26 06:15:00;;;;;;;309.70;124.68;;;24.70;42.20;;;;;;6135096;28;86550;-66
2021/10/26 06:18:01;;;;;;;287.80;115.45;;;24.70;41.60;;;;;;6152443;28;85721;-66
2021/10/26 06:21:10;;;;;;;240.05;100.25;;;24.70;41.40;;;;;;6122839;28;87212;-67
2021/10/26 06:24:11;;;;;;;221.65;92.90;;;24.70;41.40;;;;;;6121450;28;88193;-66
2021/10/26 06:27:11;;;;;;;209.15;87.80;;;24.70;41.40;;;;;;6133360;28;85221;-63
2021/10/26 06:30:14;;;;;;;211.00;83.85;;;24.70;41.30;;;;;;6111540;28;83819;-66
2021/10/26 06:33:30;;;;;;;166.75;72.32;;;24.70;41.00;;;;;;6130681;28;85086;-66
2021/10/26 06:36:34;;;;;;;159.63;70.25;;;24.70;40.70;;;;;;6138725;28;85461;-66
2021/10/26 06:39:35;;;;;;;155.98;62.58;;;24.70;40.80;;;;;;6138556;28;83574;-65
2021/10/26 06:42:36;;;;;;;144.90;65.82;;;24.70;40.50;;;;;;6132888;28;85355;-65
2021/10/26 06:45:55;;;;;;;129.48;58.13;;;24.70;40.60;;;;;;6155132;28;83209;-64
2021/10/26 06:49:14;;;;;;;128.70;58.42;;;24.70;40.00;;;;;;6157189;28;82889;-67
2021/10/26 06:52:34;;;;;;;131.52;54.63;;;24.70;40.20;;;;;;6131141;28;87127;-64
2021/10/26 06:56:04;;;;;;;116.20;52.97;;;24.80;40.00;;;;;;6111445;28;83398;-66
2021/10/26 06:59:23;;;;;;;110.57;48.78;;;24.80;40.40;;;;;;6152106;28;84283;-65
2021/10/26 07:02:42;;;;;;;109.03;49.65;;;24.80;40.40;;;;;;6145220;28;83438;-63
2021/10/26 07:06:02;;;;;;;100.13;46.20;;;24.80;39.70;;;;;;6119116;28;83182;-65
2021/10/26 07:09:06;;;;;;;93.53;45.42;;;24.80;39.30;;;;;;6127211;28;83376;-66
2021/10/26 07:12:25;;;;;;;93.65;42.90;;;24.80;38.90;;;;;;6126792;28;82835;-66
2021/10/26 07:15:29;;;;;;;89.57;42.22;;;24.80;39.10;;;;;;6111642;28;85964;-64
2021/10/26 07:18:30;;;;;;;88.35;41.35;;;24.80;39.20;;;;;;6111319;28;84487;-66
2021/10/26 07:21:31;;;;;;;82.00;38.78;;;24.90;39.60;;;;;;6123381;28;85474;-65
2021/10/26 07:25:06;;;;;;;85.22;38.88;;;24.90;39.30;;;;;;6154741;28;91429;-66
2021/10/26 07:28:06;;;;;;;81.40;36.25;;;24.90;39.30;;;;;;6115499;28;84681;-66
2021/10/26 07:31:07;;;;;;;91.32;37.63;;;24.90;39.30;;;;;;6113008;28;84722;-67
2021/10/26 07:34:11;;;;;;;74.53;35.03;;;25.00;39.20;;;;;;6133143;28;85186;-67
2021/10/26 07:37:12;;;;;;;82.68;36.10;;;25.00;39.20;;;;;;6157185;28;84279;-65
2021/10/26 07:40:17;;;;;;;65.18;33.20;;;25.00;39.20;;;;;;6136767;28;85581;-63
2021/10/26 07:43:37;;;;;;;70.20;32.92;;;25.10;39.00;;;;;;6153631;28;87063;-65
2021/10/26 07:47:06;;;;;;;63.75;31.73;;;25.10;38.70;;;;;;6103407;28;82873;-65
2021/10/26 07:50:08;;;;;;;62.70;30.83;;;25.10;38.50;;;;;;6113284;28;85639;-66
2021/10/26 07:53:09;;;;;;;56.88;29.05;;;25.10;38.00;;;;;;6104656;28;85804;-64
2021/10/26 07:56:33;;;;;;;50.20;28.15;;;25.00;37.20;;;;;;6113772;28;84557;-66
2021/10/26 07:59:34;;;;;;;52.10;26.80;;;24.90;37.40;;;;;;6129075;28;85963;-66
2021/10/26 08:02:35;;;;;;;54.03;27.35;;;24.90;36.40;;;;;;6126553;28;85340;-66
2021/10/26 08:06:04;;;;;;;48.90;25.65;;;24.80;36.40;;;;;;6109613;28;84032;-67
2021/10/26 08:09:05;;;;;;;51.83;26.77;;;24.80;36.00;;;;;;6125096;28;86466;-65
2021/10/26 08:12:05;;;;;;;45.40;25.40;;;24.70;35.80;;;;;;6113674;28;83924;-62
2021/10/26 08:15:06;;;;;;;41.72;24.17;;;24.80;35.90;;;;;;6109161;28;83135;-67
2021/10/26 08:18:07;;;;;;;45.15;24.33;;;24.70;35.50;;;;;;6127890;28;85602;-66
2021/10/26 08:21:08;;;;;;;41.25;22.40;;;24.80;35.20;;;;;;6129395;28;90577;-66
2021/10/26 08:24:09;;;;;;;47.10;23.30;;;24.80;35.80;;;;;;6128801;28;86216;-66
2021/10/26 08:27:12;;;;;;;44.53;24.17;;;24.80;36.00;;;;;;6127325;28;84927;-66
2021/10/26 08:30:17;;;;;;;44.08;23.83;;;24.80;36.00;;;;;;6127287;28;85875;-65
2021/10/26 08:36:25;;;;;;;47.83;25.60;;;24.80;36.00;;;;;;6135668;28;84926;-66
2021/10/26 08:39:26;;;;;;;41.65;23.17;;;24.80;36.10;;;;;;6112224;28;83157;-66
2021/10/26 08:42:27;;;;;;;45.17;23.38;;;24.80;36.00;;;;;;6129069;28;83838;-68
2021/10/26 08:45:28;;;;;;;43.05;24.73;;;24.80;36.20;;;;;;6129113;28;84552;-66
2021/10/26 08:48:33;;;;;;;46.35;25.95;;;24.80;36.00;;;;;;6127554;28;84240;-65
2021/10/26 08:51:53;;;;;;;49.10;23.60;;;24.90;36.10;;;;;;6124761;28;83112;-66
2021/10/26 08:54:56;;;;;;;50.55;24.63;;;24.80;35.70;;;;;;6134354;28;83097;-64
2021/10/26 08:58:24;;;;;;;43.00;24.05;;;24.90;35.70;;;;;;6153898;28;83412;-65
2021/10/26 09:01:25;;;;;;;45.17;24.45;;;24.90;35.80;;;;;;6136717;28;90772;-67
2021/10/26 09:04:29;;;;;;;47.15;24.25;;;24.90;35.60;;;;;;6134403;28;85308;-68
2021/10/26 09:07:30;;;;;;;41.88;23.30;;;24.90;35.40;;;;;;6113251;28;86229;-68
2021/10/26 09:10:32;;;;;;;36.83;22.55;;;24.90;35.10;;;;;;6112341;28;85622;-68
2021/10/26 09:17:29;;;;;;;44.20;21.25;;;24.90;35.30;;;;;;6123741;28;83160;-69
2021/10/26 09:21:02;;;;;;;41.30;21.58;;;24.90;34.80;;;;;;6123721;28;83503;-69
2021/10/26 09:24:17;;;;;;;39.22;21.70;;;24.90;35.20;;;;;;6134439;28;86054;-67
2021/10/26 09:27:18;;;;;;;45.45;23.08;;;24.90;34.60;;;;;;6134299;28;84368;-68
2021/10/26 09:30:19;;;;;;;39.17;20.05;;;24.90;34.60;;;;;;6126474;28;85923;-66
2021/10/26 09:33:20;;;;;;;38.33;20.52;;;25.00;34.60;;;;;;6140827;28;83303;-67
2021/10/26 09:36:20;;;;;;;41.03;21.88;;;25.00;34.40;;;;;;6132005;28;83833;-67
2021/10/26 09:39:21;;;;;;;44.92;21.23;;;25.00;34.70;;;;;;6132570;28;83240;-67
2021/10/26 09:42:21;;;;;;;36.22;19.60;;;25.00;34.90;;;;;;6141654;28;82676;-66
2021/10/26 09:45:22;;;;;;;40.63;20.65;;;25.10;35.10;;;;;;6152020;28;83517;-66
2021/10/26 09:48:22;;;;;;;39.20;20.25;;;25.10;35.20;;;;;;6152697;28;83336;-64
2021/10/26 09:51:23;;;;;;;35.20;18.92;;;25.10;35.10;;;;;;6152303;28;83724;-67
2021/10/26 09:54:24;;;;;;;35.67;19.13;;;25.20;34.50;;;;;;6157454;28;83197;-64
2021/10/26 09:57:25;;;;;;;38.38;18.73;;;25.20;34.30;;;;;;6156069;28;84448;-68
2021/10/26 10:00:26;;;;;;;41.75;15.93;;;25.20;34.60;;;;;;6140813;28;83822;-66
2021/10/26 10:03:27;;;;;;;30.58;14.73;;;25.10;34.80;;;;;;6133323;28;83469;-65
2021/10/26 10:06:27;;;;;;;28.67;15.20;;;25.20;34.90;;;;;;6140254;28;83535;-67
2021/10/26 10:09:28;;;;;;;28.83;13.07;;;25.30;34.80;;;;;;6140008;28;82905;-66
2021/10/26 10:12:29;;;;;;;22.35;12.07;;;25.40;34.70;;;;;;6118211;28;85850;-67
2021/10/26 10:15:29;;;;;;;27.60;12.30;;;25.50;34.50;;;;;;6148998;28;86264;-67
2021/10/26 10:18:30;;;;;;;25.65;12.70;;;25.50;34.40;;;;;;6156220;28;83046;-66
2021/10/26 10:21:30;;;;;;;22.60;12.50;;;25.60;34.10;;;;;;6138512;28;83256;-67
2021/10/26 10:24:31;;;;;;;21.58;11.60;;;25.50;34.20;;;;;;6139567;28;85909;-66
2021/10/26 10:27:32;;;;;;;21.63;11.88;;;25.50;34.10;;;;;;6157707;28;83583;-66
2021/10/26 10:30:32;;;;;;;18.63;11.65;;;25.50;34.40;;;;;;6138300;28;84108;-67
2021/10/26 10:33:33;;;;;;;17.88;10.75;;;25.50;34.50;;;;;;6156754;28;83473;-65
2021/10/26 10:36:34;;;;;;;20.80;10.65;;;25.50;34.10;;;;;;6155576;28;83227;-65
2021/10/26 10:39:35;;;;;;;19.38;9.68;;;25.50;34.00;;;;;;6157693;28;83140;-67
2021/10/26 10:42:35;;;;;;;13.30;8.65;;;25.50;34.00;;;;;;6160603;28;82283;-67
2021/10/26 10:45:36;;;;;;;15.20;8.23;;;25.60;33.60;;;;;;6158705;28;83010;-66
2021/10/26 10:48:36;;;;;;;13.85;7.47;;;25.60;33.70;;;;;;6158288;28;80377;-67
2021/10/26 10:51:37;;;;;;;14.32;7.80;;;25.60;33.70;;;;;;6134733;28;80516;-69
2021/10/26 10:54:43;;;;;;;11.52;7.10;;;25.60;34.00;;;;;;6132498;28;80567;-68
2021/10/26 10:57:43;;;;;;;;;;;25.70;34.20;;;;;;6152285;28;87395;-66
2021/10/26 11:00:44;;;;;;;10.55;6.57;;;25.70;33.60;;;;;;6147000;28;80892;-68
2021/10/26 11:03:45;;;;;;;9.55;5.82;;;25.80;33.40;;;;;;6136000;28;80638;-65
2021/10/26 11:06:45;;;;;;;10.73;6.45;;;25.80;32.90;;;;;;6134637;28;81079;-67
2021/10/26 11:09:46;;;;;;;8.35;5.25;;;25.80;32.40;;;;;;6134650;28;81393;-64
2021/10/26 11:12:47;;;;;;;15.98;6.22;;;25.70;32.40;;;;;;6126682;28;81844;-67
2021/10/26 11:15:47;;;;;;;10.45;5.68;;;25.70;32.20;;;;;;6134702;28;81030;-68
2021/10/26 11:18:48;;;;;;;9.88;5.95;;;25.70;32.30;;;;;;6134769;28;80475;-64
2021/10/26 11:21:48;;;;;;;9.43;5.30;;;25.70;32.30;;;;;;6134141;28;82935;-68
2021/10/26 11:24:49;;;;;;;11.85;5.75;;;25.70;32.00;;;;;;6135764;28;80548;-68
2021/10/26 11:27:49;;;;;;;11.02;5.40;;;25.70;31.60;;;;;;6135772;28;80425;-68
2021/10/26 11:30:51;;;;;;;11.55;5.70;;;25.70;31.70;;;;;;6135470;28;80643;-68
2021/10/26 11:33:54;;;;;;;10.18;4.78;;;25.60;31.50;;;;;;6137002;28;82910;-67
2021/10/26 11:36:55;;;;;;;9.55;5.10;;;25.60;31.90;;;;;;6139655;28;81897;-67
2021/10/26 11:39:56;;;;;;;11.20;5.32;;;25.60;31.80;;;;;;6159550;28;80218;-67
2021/10/26 11:42:56;;;;;;;16.00;5.05;;;25.60;32.10;;;;;;6154271;28;80868;-67
2021/10/26 11:45:57;;;;;;;12.13;5.00;;;25.60;32.10;;;;;;6151673;28;80967;-69
2021/10/26 11:48:59;;;;;;;9.30;5.65;;;25.70;32.30;;;;;;6156312;28;80523;-69
2021/10/26 11:52:00;;;;;;;6.75;4.97;;;25.70;32.50;;;;;;6158590;28;80884;-67
2021/10/26 11:55:01;;;;;;;7.13;4.45;;;25.80;32.70;;;;;;6136403;28;83467;-70
2021/10/26 11:58:01;;;;;;;16.02;4.78;;;25.90;32.70;;;;;;6158788;28;80270;-68
2021/10/26 12:01:10;;;;;;;9.63;5.32;;;25.90;32.40;;;;;;6152275;28;82339;-69
2021/10/26 12:04:11;;;;;;;13.30;5.07;;;26.00;33.10;;;;;;6157269;28;82923;-69
2021/10/26 12:07:11;;;;;;;9.30;5.10;;;26.00;33.00;;;;;;6158445;28;80414;-69
2021/10/26 12:10:12;;;;;;;14.80;5.43;;;26.00;32.80;;;;;;6158864;28;80821;-68
2021/10/26 12:13:12;;;;;;;9.93;4.75;;;26.10;33.50;;;;;;6147479;28;80719;-72
2021/10/26 12:16:13;;;;;;;12.45;4.88;;;26.10;33.00;;;;;;6154224;28;80558;-71
2021/10/26 12:19:13;;;;;;;10.88;5.53;;;26.10;33.50;;;;;;6153948;28;82786;-77
2021/10/26 12:22:14;;;;;;;8.80;4.88;;;26.10;33.50;;;;;;6155158;28;80616;-72
2021/10/26 12:25:18;;;;;;;17.15;5.70;;;26.10;33.50;;;;;;6135375;28;81155;-68
2021/10/26 12:28:21;;;;;;;11.95;5.65;;;26.20;33.60;;;;;;6135813;28;83786;-74
2021/10/26 12:31:23;;;;;;;9.07;4.85;;;26.30;33.30;;;;;;6156004;28;81138;-71
2021/10/26 12:34:24;;;;;;;8.60;4.80;;;26.40;33.70;;;;;;6153811;28;86175;-71
2021/10/26 12:37:24;;;;;;;9.88;4.60;;;26.40;33.30;;;;;;6132479;28;80545;-69
2021/10/26 12:40:25;;;;;;;14.65;6.07;;;26.50;33.10;;;;;;6131769;28;80641;-69
2021/10/26 12:43:26;;;;;;;10.88;5.50;;;26.50;33.10;;;;;;6111632;28;80847;-71
2021/10/26 12:46:26;;;;;;;13.93;5.80;;;26.50;32.70;;;;;;6130642;28;80846;-73
2021/10/26 12:49:27;;;;;;;9.23;5.78;;;26.50;32.70;;;;;;6131973;28;81886;-72
2021/10/26 12:52:28;;;;;;;10.60;6.60;;;26.50;32.10;;;;;;6133616;28;80813;-71
2021/10/26 12:55:28;;;;;;;12.52;7.30;;;26.40;31.80;;;;;;6153958;28;80602;-72
2021/10/26 12:58:29;;;;;;;11.90;6.63;;;26.20;31.40;;;;;;6151201;28;80611;-70
2021/10/26 13:01:30;;;;;;;10.98;6.70;;;26.10;32.30;;;;;;6140581;28;81477;-69
2021/10/26 13:04:30;;;;;;;13.48;6.60;;;26.00;32.20;;;;;;6157950;28;81241;-72
2021/10/26 13:07:31;;;;;;;16.20;6.93;;;26.10;32.50;;;;;;6158421;28;80552;-65
2021/10/26 13:10:31;;;;;;;11.85;7.03;;;26.00;32.40;;;;;;6156827;28;82344;-68
2021/10/26 13:13:34;;;;;;;14.52;8.27;;;26.00;32.40;;;;;;6158302;28;80727;-69
2021/10/26 13:16:35;;;;;;;14.85;8.65;;;26.10;32.70;;;;;;6147685;28;81965;-67
2021/10/26 13:19:35;;;;;;;17.00;8.52;;;26.00;32.50;;;;;;6153772;28;80538;-67
2021/10/26 13:22:36;;;;;;;17.83;8.60;;;26.00;32.50;;;;;;6137239;28;81132;-68
2021/10/26 13:25:37;;;;;;;20.58;8.90;;;26.00;33.50;;;;;;6125658;28;80554;-67
2021/10/26 13:28:39;;;;;;;21.33;9.43;;;26.00;33.00;;;;;;6108880;28;83086;-66
2021/10/26 13:31:39;;;;;;;16.25;9.73;;;26.00;33.00;;;;;;6144374;28;82513;-67
2021/10/26 13:34:40;;;;;;;18.00;10.25;;;25.90;32.80;;;;;;6125523;28;83315;-68
2021/10/26 13:37:41;;;;;;;14.35;9.23;;;25.90;32.50;;;;;;6127906;28;83348;-68
2021/10/26 13:40:41;;;;;;;19.02;10.23;;;26.00;33.00;;;;;;6130520;28;84133;-66
2021/10/26 13:43:42;;;;;;;17.63;9.73;;;26.10;32.10;;;;;;6122380;28;83588;-67
2021/10/26 13:46:43;;;;;;;24.35;10.43;;;26.30;32.20;;;;;;6131613;28;81972;-69
2021/10/26 13:49:43;;;;;;;17.80;9.48;;;26.50;31.70;;;;;;6128991;28;89062;-67
2021/10/26 13:52:44;;;;;;;18.67;10.02;;;26.60;31.60;;;;;;6123536;28;82812;-67
2021/10/26 13:55:44;;;;;;;17.77;9.52;;;26.50;32.30;;;;;;6124426;28;83311;-66
2021/10/26 13:58:45;;;;;;;17.13;9.82;;;26.50;32.10;;;;;;6128409;28;84535;-66
2021/10/26 14:01:46;;;;;;;19.05;9.77;;;26.40;32.30;;;;;;6129461;28;80874;-65
2021/10/26 14:04:46;;;;;;;17.63;10.45;;;26.20;32.40;;;;;;6135281;28;80495;-72
2021/10/26 14:07:47;;;;;;;18.70;9.95;;;26.10;32.60;;;;;;6130689;28;83136;-71
2021/10/26 14:10:48;;;;;;;19.20;10.05;;;26.10;32.50;;;;;;6134649;28;83412;-69
2021/10/26 14:13:48;;;;;;;15.95;9.85;;;26.00;32.20;;;;;;6133643;28;90656;-73
2021/10/26 14:16:50;;;;;;;19.77;10.27;;;26.00;32.90;;;;;;6126399;28;82637;-67
2021/10/26 14:19:50;;;;;;;15.82;9.05;;;26.00;32.80;;;;;;6122428;28;83189;-69
2021/10/26 14:22:51;;;;;;;16.73;9.52;;;26.10;32.90;;;;;;6125060;28;83174;-68
2021/10/26 14:25:52;;;;;;;12.80;8.90;;;26.10;33.10;;;;;;6130698;28;80178;-67
2021/10/26 14:28:53;;;;;;;15.77;9.25;;;26.10;33.10;;;;;;6129075;28;80826;-67
2021/10/26 14:31:54;;;;;;;17.42;9.60;;;26.10;33.00;;;;;;6129919;28;80522;-68
2021/10/26 14:34:56;;;;;;;15.98;9.80;;;26.10;33.20;;;;;;6129929;28;80554;-69
2021/10/26 14:38:20;;;;;;;17.30;9.90;;;26.10;33.30;;;;;;6126037;28;80877;-69
2021/10/26 14:54:36;;;;;;;21.80;10.23;;;25.80;33.30;;;;;;6133563;28;83281;-68
2021/10/26 14:57:37;;;;;;;22.02;10.82;;;25.70;33.20;;;;;;6123753;28;83110;-72
2021/10/26 15:00:37;;;;;;;19.63;11.23;;;25.70;33.60;;;;;;6124438;28;85009;-71
2021/10/26 15:03:38;;;;;;;24.05;10.80;;;25.60;33.70;;;;;;6129244;28;83886;-72
2021/10/26 15:06:39;;;;;;;28.45;11.30;;;25.50;34.00;;;;;;6128000;28;83128;-69
2021/10/26 15:09:54;;;;;;;19.25;10.93;;;25.50;34.10;;;;;;6138401;28;86051;-70
2021/10/26 15:12:57;;;;;;;20.35;11.25;;;25.50;34.50;;;;;;6128412;28;83382;-70
2021/10/26 15:15:58;;;;;;;21.80;10.70;;;25.50;35.00;;;;;;6122806;28;83871;-70
2021/10/26 15:19:02;;;;;;;19.65;10.57;;;25.50;35.40;;;;;;6128137;28;83440;-71
2021/10/26 15:22:14;;;;;;;20.25;10.20;;;25.40;34.80;;;;;;6121536;28;84275;-71
2021/10/26 15:34:53;;;;;;;23.23;9.82;;;25.40;35.50;;;;;;6154590;28;82037;-74
2021/10/26 15:37:54;;;;;;;21.13;9.25;;;25.30;35.40;;;;;;6153880;28;81150;-72
2021/10/26 15:40:55;;;;;;;16.58;9.10;;;25.30;35.50;;;;;;6155863;28;80982;-72
2021/10/26 15:43:55;;;;;;;21.05;9.02;;;25.30;35.60;;;;;;6149461;28;81772;-72
2021/10/26 15:46:56;;;;;;;27.25;10.13;;;25.30;35.40;;;;;;6120610;28;81469;-77
2021/10/26 15:49:56;;;;;;;19.23;9.02;;;25.30;35.70;;;;;;6154868;28;82973;-72
2021/10/26 15:52:57;;;;;;;16.83;8.80;;;25.30;35.70;;;;;;6154467;28;84170;-73
2021/10/26 15:55:57;;;;;;;17.90;9.52;;;25.20;35.70;;;;;;6148566;28;81398;-66
2021/10/26 15:58:58;;;;;;;16.98;10.20;;;25.20;35.60;;;;;;6130548;28;80779;-66
2021/10/26 16:01:59;;;;;;;21.88;9.05;;;25.20;35.60;;;;;;6134462;28;91083;-70